Pottersville, Missouri
Current Conditions -  °F | °C
As of 2:53 PM on Thursday 23 Oct 2014 (Local Time) from KUNO Reporting Station
Overcast Overcast  
Wind Chill: 57°   Ceiling: 4100
Heat Index: 57°   Visibility: 10mi
Dew Point: 45°   Wind: 6mph
Humidity: 64%   Direction: 160°SSE
Pressure: 30.16"   Gusts: NA
Location:  36.7°N, 92.03°W
Report Text: KUNO 231953Z AUTO 16005KT 10SM OVC041 14/07 A3016 RMK AO2 RAB23E37 SLP212 P0000 T01390072
Loading
Personal Weather Stations






























Interactive Weather Map
Tropical Storm Tracking
New forecast layout! Learn more

10-Day Weather Forecast

Advertisements
Track Severe Weather on mobile